sensor_id;sensor_type;location;lat;lon;timestamp;pressure;altitude;pressure_sealevel;temperature;humidity
61037;BME280;57313;47.040;15.498;2022-10-03T00:01:48;97080.44;;;10.68;100.00
61037;BME280;57313;47.040;15.498;2022-10-03T00:04:32;97084.38;;;10.73;100.00
61037;BME280;57313;47.040;15.498;2022-10-03T00:07:10;97090.09;;;10.66;100.00
61037;BME280;57313;47.040;15.498;2022-10-03T00:09:53;97084.97;;;10.64;100.00
61037;BME280;57313;47.040;15.498;2022-10-03T00:13:08;97078.94;;;10.64;100.00
61037;BME280;57313;47.040;15.498;2022-10-03T00:15:46;97072.25;;;10.59;100.00
61037;BME280;57313;47.040;15.498;2022-10-03T00:18:29;97075.28;;;10.53;100.00
61037;BME280;57313;47.040;15.498;2022-10-03T00:21:21;97061.59;;;10.50;100.00
61037;BME280;57313;47.040;15.498;2022-10-03T00:24:00;97080.69;;;10.50;100.00
61037;BME280;57313;47.040;15.498;2022-10-03T00:26:39;97088.59;;;10.49;100.00
61037;BME280;57313;47.040;15.498;2022-10-03T00:32:17;97108.97;;;10.42;100.00
61037;BME280;57313;47.040;15.498;2022-10-03T00:37:45;97119.03;;;10.34;100.00
61037;BME280;57313;47.040;15.498;2022-10-03T00:40:34;97118.00;;;10.36;100.00
61037;BME280;57313;47.040;15.498;2022-10-03T00:46:43;97122.81;;;10.28;100.00
61037;BME280;57313;47.040;15.498;2022-10-03T00:49:55;97121.69;;;10.32;100.00
61037;BME280;57313;47.040;15.498;2022-10-03T00:52:55;97125.06;;;10.34;100.00
61037;BME280;57313;47.040;15.498;2022-10-03T00:55:36;97124.88;;;10.37;100.00
61037;BME280;57313;47.040;15.498;2022-10-03T00:58:20;97119.94;;;10.33;100.00
61037;BME280;57313;47.040;15.498;2022-10-03T01:00:57;97124.13;;;10.35;100.00
61037;BME280;57313;47.040;15.498;2022-10-03T01:03:48;97127.47;;;10.37;100.00
61037;BME280;57313;47.040;15.498;2022-10-03T01:06:28;97124.03;;;10.37;100.00
61037;BME280;57313;47.040;15.498;2022-10-03T01:09:22;97125.63;;;10.39;100.00
61037;BME280;57313;47.040;15.498;2022-10-03T01:12:10;97114.56;;;10.36;100.00
61037;BME280;57313;47.040;15.498;2022-10-03T01:14:56;97109.78;;;10.28;100.00
61037;BME280;57313;47.040;15.498;2022-10-03T01:17:32;97121.88;;;10.29;100.00
61037;BME280;57313;47.040;15.498;2022-10-03T01:20:12;97128.97;;;10.27;100.00
61037;BME280;57313;47.040;15.498;2022-10-03T01:26:12;97116.91;;;10.12;100.00
61037;BME280;57313;47.040;15.498;2022-10-03T01:28:48;97116.03;;;10.11;100.00
61037;BME280;57313;47.040;15.498;2022-10-03T01:31:24;97107.78;;;10.04;100.00
61037;BME280;57313;47.040;15.498;2022-10-03T01:34:01;97102.97;;;9.98;100.00
61037;BME280;57313;47.040;15.498;2022-10-03T01:36:38;97106.66;;;9.94;100.00
61037;BME280;57313;47.040;15.498;2022-10-03T01:39:15;97098.22;;;9.91;100.00
61037;BME280;57313;47.040;15.498;2022-10-03T01:41:53;97096.72;;;9.86;100.00
61037;BME280;57313;47.040;15.498;2022-10-03T01:44:28;97102.53;;;9.77;100.00
61037;BME280;57313;47.040;15.498;2022-10-03T01:47:08;97100.19;;;9.73;100.00
61037;BME280;57313;47.040;15.498;2022-10-03T01:49:44;97090.34;;;9.63;100.00
61037;BME280;57313;47.040;15.498;2022-10-03T01:52:19;97094.88;;;9.60;100.00
61037;BME280;57313;47.040;15.498;2022-10-03T01:54:58;97096.03;;;9.56;100.00
61037;BME280;57313;47.040;15.498;2022-10-03T01:57:41;97099.91;;;9.48;100.00
61037;BME280;57313;47.040;15.498;2022-10-03T02:00:16;97096.75;;;9.43;100.00
61037;BME280;57313;47.040;15.498;2022-10-03T02:02:49;97095.88;;;9.43;100.00
61037;BME280;57313;47.040;15.498;2022-10-03T02:05:25;97096.16;;;9.38;100.00
61037;BME280;57313;47.040;15.498;2022-10-03T02:08:04;97091.59;;;9.27;100.00
61037;BME280;57313;47.040;15.498;2022-10-03T02:10:42;97091.13;;;9.21;100.00
61037;BME280;57313;47.040;15.498;2022-10-03T02:13:14;97077.41;;;9.19;100.00
61037;BME280;57313;47.040;15.498;2022-10-03T02:15:55;97086.38;;;9.13;100.00
61037;BME280;57313;47.040;15.498;2022-10-03T02:18:29;97091.56;;;9.13;100.00
61037;BME280;57313;47.040;15.498;2022-10-03T02:21:10;97107.50;;;9.07;100.00
61037;BME280;57313;47.040;15.498;2022-10-03T02:23:42;97098.34;;;9.01;100.00
61037;BME280;57313;47.040;15.498;2022-10-03T02:26:51;97106.38;;;8.96;100.00
61037;BME280;57313;47.040;15.498;2022-10-03T02:29:36;97099.25;;;9.00;100.00
61037;BME280;57313;47.040;15.498;2022-10-03T02:35:47;97110.28;;;9.04;100.00
61037;BME280;57313;47.040;15.498;2022-10-03T02:38:29;97118.81;;;9.06;100.00
61037;BME280;57313;47.040;15.498;2022-10-03T02:41:43;97111.72;;;9.09;100.00
61037;BME280;57313;47.040;15.498;2022-10-03T02:44:43;97132.50;;;9.09;100.00
61037;BME280;57313;47.040;15.498;2022-10-03T02:50:33;97130.72;;;9.10;100.00
61037;BME280;57313;47.040;15.498;2022-10-03T02:53:37;97134.16;;;9.10;100.00
61037;BME280;57313;47.040;15.498;2022-10-03T02:59:57;97144.28;;;9.15;100.00
61037;BME280;57313;47.040;15.498;2022-10-03T03:05:54;97140.50;;;9.21;100.00
61037;BME280;57313;47.040;15.498;2022-10-03T03:08:41;97151.38;;;9.27;100.00
61037;BME280;57313;47.040;15.498;2022-10-03T03:14:42;97148.59;;;9.30;100.00
61037;BME280;57313;47.040;15.498;2022-10-03T03:17:24;97146.00;;;9.30;100.00
61037;BME280;57313;47.040;15.498;2022-10-03T03:20:05;97154.47;;;9.34;100.00
61037;BME280;57313;47.040;15.498;2022-10-03T03:22:52;97164.94;;;9.32;100.00
61037;BME280;57313;47.040;15.498;2022-10-03T03:25:42;97158.81;;;9.33;100.00
61037;BME280;57313;47.040;15.498;2022-10-03T03:28:22;97161.31;;;9.35;100.00
61037;BME280;57313;47.040;15.498;2022-10-03T03:31:02;97164.59;;;9.39;100.00
61037;BME280;57313;47.040;15.498;2022-10-03T03:33:42;97170.63;;;9.39;100.00
61037;BME280;57313;47.040;15.498;2022-10-03T03:36:16;97173.03;;;9.42;100.00
61037;BME280;57313;47.040;15.498;2022-10-03T03:38:53;97179.06;;;9.43;100.00
61037;BME280;57313;47.040;15.498;2022-10-03T03:41:35;97175.47;;;9.45;100.00
61037;BME280;57313;47.040;15.498;2022-10-03T03:44:29;97172.13;;;9.43;100.00
61037;BME280;57313;47.040;15.498;2022-10-03T03:47:25;97176.56;;;9.41;100.00
61037;BME280;57313;47.040;15.498;2022-10-03T03:50:11;97170.44;;;9.42;100.00
61037;BME280;57313;47.040;15.498;2022-10-03T03:52:53;97170.78;;;9.36;100.00
61037;BME280;57313;47.040;15.498;2022-10-03T03:55:50;97168.19;;;9.36;100.00
61037;BME280;57313;47.040;15.498;2022-10-03T03:58:33;97175.72;;;9.41;100.00
61037;BME280;57313;47.040;15.498;2022-10-03T04:04:14;97174.03;;;9.40;100.00
61037;BME280;57313;47.040;15.498;2022-10-03T04:06:54;97183.53;;;9.41;100.00
61037;BME280;57313;47.040;15.498;2022-10-03T04:09:47;97176.38;;;9.44;100.00
61037;BME280;57313;47.040;15.498;2022-10-03T04:12:32;97173.22;;;9.39;100.00
61037;BME280;57313;47.040;15.498;2022-10-03T04:15:19;97166.16;;;9.41;100.00
61037;BME280;57313;47.040;15.498;2022-10-03T04:18:04;97170.44;;;9.42;100.00
61037;BME280;57313;47.040;15.498;2022-10-03T04:20:55;97169.34;;;9.46;100.00
61037;BME280;57313;47.040;15.498;2022-10-03T04:23:40;97174.47;;;9.48;100.00
61037;BME280;57313;47.040;15.498;2022-10-03T04:26:23;97170.19;;;9.47;100.00
61037;BME280;57313;47.040;15.498;2022-10-03T04:29:22;97177.22;;;9.45;100.00
61037;BME280;57313;47.040;15.498;2022-10-03T04:32:02;97183.25;;;9.45;100.00
61037;BME280;57313;47.040;15.498;2022-10-03T04:34:43;97178.88;;;9.46;100.00
61037;BME280;57313;47.040;15.498;2022-10-03T04:37:25;97176.38;;;9.44;100.00
61037;BME280;57313;47.040;15.498;2022-10-03T04:40:10;97183.25;;;9.45;100.00
61037;BME280;57313;47.040;15.498;2022-10-03T04:42:51;97189.09;;;9.49;100.00
61037;BME280;57313;47.040;15.498;2022-10-03T04:45:37;97180.66;;;9.45;100.00
61037;BME280;57313;47.040;15.498;2022-10-03T04:48:12;97181.31;;;9.49;100.00
61037;BME280;57313;47.040;15.498;2022-10-03T04:50:44;97172.69;;;9.48;100.00
61037;BME280;57313;47.040;15.498;2022-10-03T04:53:23;97185.78;;;9.47;100.00
61037;BME280;57313;47.040;15.498;2022-10-03T04:55:59;97189.19;;;9.47;100.00
61037;BME280;57313;47.040;15.498;2022-10-03T04:58:36;97189.19;;;9.47;100.00
61037;BME280;57313;47.040;15.498;2022-10-03T05:01:16;97193.31;;;9.51;100.00
61037;BME280;57313;47.040;15.498;2022-10-03T05:03:56;97175.00;;;9.53;100.00
61037;BME280;57313;47.040;15.498;2022-10-03T05:06:36;97192.28;;;9.54;100.00
61037;BME280;57313;47.040;15.498;2022-10-03T05:09:20;97199.25;;;9.53;100.00
61037;BME280;57313;47.040;15.498;2022-10-03T05:11:58;97200.94;;;9.55;100.00
61037;BME280;57313;47.040;15.498;2022-10-03T05:14:43;97206.94;;;9.55;100.00
61037;BME280;57313;47.040;15.498;2022-10-03T05:17:21;97209.56;;;9.55;100.00
61037;BME280;57313;47.040;15.498;2022-10-03T05:20:01;97213.47;;;9.62;100.00
61037;BME280;57313;47.040;15.498;2022-10-03T05:22:38;97224.63;;;9.64;100.00
61037;BME280;57313;47.040;15.498;2022-10-03T05:25:19;97224.06;;;9.59;100.00
61037;BME280;57313;47.040;15.498;2022-10-03T05:27:56;97223.16;;;9.60;100.00
61037;BME280;57313;47.040;15.498;2022-10-03T05:30:34;97223.69;;;9.65;100.00
61037;BME280;57313;47.040;15.498;2022-10-03T05:33:16;97230.84;;;9.62;100.00
61037;BME280;57313;47.040;15.498;2022-10-03T05:36:02;97232.50;;;9.63;100.00
61037;BME280;57313;47.040;15.498;2022-10-03T05:38:51;97229.06;;;9.62;100.00
61037;BME280;57313;47.040;15.498;2022-10-03T05:41:22;97229.72;;;9.66;100.00
61037;BME280;57313;47.040;15.498;2022-10-03T05:44:00;97246.19;;;9.66;100.00
61037;BME280;57313;47.040;15.498;2022-10-03T05:46:39;97248.63;;;9.69;100.00
61037;BME280;57313;47.040;15.498;2022-10-03T05:49:22;97255.28;;;9.74;100.00
61037;BME280;57313;47.040;15.498;2022-10-03T05:52:07;97253.38;;;9.77;100.00
61037;BME280;57313;47.040;15.498;2022-10-03T05:55:03;97258.28;;;9.82;100.00
61037;BME280;57313;47.040;15.498;2022-10-03T05:57:47;97259.13;;;9.82;100.00
61037;BME280;57313;47.040;15.498;2022-10-03T06:00:19;97260.59;;;9.86;100.00
61037;BME280;57313;47.040;15.498;2022-10-03T06:03:03;97259.50;;;9.91;100.00
61037;BME280;57313;47.040;15.498;2022-10-03T06:06:12;97265.44;;;9.93;100.00
61037;BME280;57313;47.040;15.498;2022-10-03T06:09:09;97263.63;;;9.95;100.00
61037;BME280;57313;47.040;15.498;2022-10-03T06:12:04;97254.78;;;9.97;100.00
61037;BME280;57313;47.040;15.498;2022-10-03T06:14:43;97262.22;;;10.03;100.00
61037;BME280;57313;47.040;15.498;2022-10-03T06:17:33;97260.19;;;10.09;100.00
61037;BME280;57313;47.040;15.498;2022-10-03T06:26:38;97274.81;;;10.26;100.00
61037;BME280;57313;47.040;15.498;2022-10-03T06:35:58;97270.00;;;10.34;100.00
61037;BME280;57313;47.040;15.498;2022-10-03T06:45:23;97274.84;;;10.40;100.00
61037;BME280;57313;47.040;15.498;2022-10-03T06:48:23;97288.59;;;10.42;100.00
61037;BME280;57313;47.040;15.498;2022-10-03T06:50:53;97294.75;;;10.41;100.00
61037;BME280;57313;47.040;15.498;2022-10-03T06:53:39;97288.31;;;10.47;100.00
61037;BME280;57313;47.040;15.498;2022-10-03T06:56:44;97293.34;;;10.50;100.00
61037;BME280;57313;47.040;15.498;2022-10-03T06:59:38;97297.63;;;10.51;100.00
61037;BME280;57313;47.040;15.498;2022-10-03T07:03:02;97288.59;;;10.56;100.00
61037;BME280;57313;47.040;15.498;2022-10-03T07:05:58;97292.69;;;10.60;100.00
61037;BME280;57313;47.040;15.498;2022-10-03T07:21:14;97292.00;;;10.86;100.00
61037;BME280;57313;47.040;15.498;2022-10-03T07:27:14;97304.66;;;11.06;100.00
61037;BME280;57313;47.040;15.498;2022-10-03T07:29:57;97301.47;;;11.16;100.00
61037;BME280;57313;47.040;15.498;2022-10-03T07:35:50;97323.06;;;11.18;100.00
61037;BME280;57313;47.040;15.498;2022-10-03T07:38:37;97323.25;;;11.14;100.00
61037;BME280;57313;47.040;15.498;2022-10-03T07:41:46;97329.47;;;11.12;100.00
61037;BME280;57313;47.040;15.498;2022-10-03T07:45:02;97324.06;;;11.15;100.00
61037;BME280;57313;47.040;15.498;2022-10-03T07:51:08;97335.06;;;11.20;100.00
61037;BME280;57313;47.040;15.498;2022-10-03T08:00:09;97320.78;;;11.26;100.00
61037;BME280;57313;47.040;15.498;2022-10-03T08:05:53;97320.22;;;11.35;100.00
61037;BME280;57313;47.040;15.498;2022-10-03T08:08:50;97336.28;;;11.42;100.00
61037;BME280;57313;47.040;15.498;2022-10-03T08:11:34;97333.19;;;11.49;100.00
61037;BME280;57313;47.040;15.498;2022-10-03T08:14:17;97332.28;;;11.50;100.00
61037;BME280;57313;47.040;15.498;2022-10-03T08:17:24;97336.38;;;11.55;100.00
61037;BME280;57313;47.040;15.498;2022-10-03T08:20:21;97325.75;;;11.58;100.00
61037;BME280;57313;47.040;15.498;2022-10-03T08:23:09;97330.84;;;11.59;100.00
61037;BME280;57313;47.040;15.498;2022-10-03T08:25:44;97332.22;;;11.65;100.00
61037;BME280;57313;47.040;15.498;2022-10-03T08:31:35;97337.28;;;11.81;100.00
61037;BME280;57313;47.040;15.498;2022-10-03T08:35:01;97335.41;;;11.83;100.00
61037;BME280;57313;47.040;15.498;2022-10-03T08:41:18;97337.16;;;11.97;100.00
61037;BME280;57313;47.040;15.498;2022-10-03T08:56:05;97320.50;;;12.51;100.00
61037;BME280;57313;47.040;15.498;2022-10-03T08:59:01;97322.59;;;12.59;100.00
61037;BME280;57313;47.040;15.498;2022-10-03T09:01:56;97332.94;;;12.73;100.00
61037;BME280;57313;47.040;15.498;2022-10-03T09:08:04;97314.56;;;12.99;100.00
61037;BME280;57313;47.040;15.498;2022-10-03T09:10:52;97321.44;;;13.13;100.00
61037;BME280;57313;47.040;15.498;2022-10-03T09:13:51;97319.66;;;13.26;100.00
61037;BME280;57313;47.040;15.498;2022-10-03T09:16:46;97311.56;;;13.42;95.17
61037;BME280;57313;47.040;15.498;2022-10-03T09:20:02;97313.41;;;13.53;86.32
61037;BME280;57313;47.040;15.498;2022-10-03T09:25:49;97316.34;;;13.72;85.04
61037;BME280;57313;47.040;15.498;2022-10-03T09:28:49;97323.41;;;13.83;80.59
61037;BME280;57313;47.040;15.498;2022-10-03T09:31:43;97319.91;;;13.95;73.31
61037;BME280;57313;47.040;15.498;2022-10-03T09:34:49;97324.56;;;14.03;69.34
61037;BME280;57313;47.040;15.498;2022-10-03T09:37:39;97321.41;;;14.22;71.81
61037;BME280;57313;47.040;15.498;2022-10-03T09:41:01;97317.38;;;14.41;73.15
61037;BME280;57313;47.040;15.498;2022-10-03T09:47:01;97329.91;;;14.60;64.84
61037;BME280;57313;47.040;15.498;2022-10-03T09:52:57;97333.88;;;14.65;63.15
61037;BME280;57313;47.040;15.498;2022-10-03T09:55:41;97333.31;;;14.73;67.86
61037;BME280;57313;47.040;15.498;2022-10-03T09:58:29;97332.09;;;14.77;68.52
61037;BME280;57313;47.040;15.498;2022-10-03T10:01:19;97327.22;;;14.84;63.86
61037;BME280;57313;47.040;15.498;2022-10-03T10:04:34;97336.38;;;14.89;60.23
61037;BME280;57313;47.040;15.498;2022-10-03T10:08:04;97318.88;;;15.01;62.31
61037;BME280;57313;47.040;15.498;2022-10-03T10:14:07;97315.97;;;15.16;54.36
61037;BME280;57313;47.040;15.498;2022-10-03T10:17:17;97317.75;;;15.26;55.31
61037;BME280;57313;47.040;15.498;2022-10-03T10:20:04;97314.66;;;15.33;56.30
61037;BME280;57313;47.040;15.498;2022-10-03T10:26:16;97303.63;;;15.50;59.46
61037;BME280;57313;47.040;15.498;2022-10-03T10:29:25;97307.84;;;15.41;54.09
61037;BME280;57313;47.040;15.498;2022-10-03T10:36:00;97310.78;;;15.48;54.43
61037;BME280;57313;47.040;15.498;2022-10-03T10:42:19;97304.22;;;15.54;55.82
61037;BME280;57313;47.040;15.498;2022-10-03T10:48:30;97312.63;;;15.69;54.35
61037;BME280;57313;47.040;15.498;2022-10-03T10:54:43;97309.97;;;15.91;58.01
61037;BME280;57313;47.040;15.498;2022-10-03T10:57:36;97308.16;;;15.92;57.40
61037;BME280;57313;47.040;15.498;2022-10-03T11:00:19;97292.41;;;15.92;54.36
61037;BME280;57313;47.040;15.498;2022-10-03T11:06:56;97304.50;;;16.04;55.87
61037;BME280;57313;47.040;15.498;2022-10-03T11:12:53;97307.28;;;16.24;53.72
61037;BME280;57313;47.040;15.498;2022-10-03T11:19:12;97301.38;;;16.31;50.77
61037;BME280;57313;47.040;15.498;2022-10-03T11:31:47;97306.56;;;16.43;48.41
61037;BME280;57313;47.040;15.498;2022-10-03T11:34:48;97311.72;;;16.54;52.96
61037;BME280;57313;47.040;15.498;2022-10-03T11:37:45;97311.09;;;16.62;54.16
61037;BME280;57313;47.040;15.498;2022-10-03T11:40:25;97311.72;;;16.75;53.72
61037;BME280;57313;47.040;15.498;2022-10-03T11:43:17;97315.03;;;16.77;51.31
61037;BME280;57313;47.040;15.498;2022-10-03T11:45:50;97296.34;;;16.80;51.04
61037;BME280;57313;47.040;15.498;2022-10-03T11:48:36;97310.19;;;16.82;50.55
61037;BME280;57313;47.040;15.498;2022-10-03T11:51:09;97309.00;;;16.86;48.72
61037;BME280;57313;47.040;15.498;2022-10-03T11:53:42;97298.50;;;16.86;47.86
61037;BME280;57313;47.040;15.498;2022-10-03T11:56:32;97304.31;;;16.90;51.44
61037;BME280;57313;47.040;15.498;2022-10-03T11:59:32;97296.16;;;16.93;47.05
61037;BME280;57313;47.040;15.498;2022-10-03T12:02:11;97290.50;;;16.98;47.99
61037;BME280;57313;47.040;15.498;2022-10-03T12:04:56;97292.03;;;17.00;48.85
61037;BME280;57313;47.040;15.498;2022-10-03T12:07:41;97291.22;;;17.00;46.07
61037;BME280;57313;47.040;15.498;2022-10-03T12:10:16;97282.47;;;16.99;45.44
61037;BME280;57313;47.040;15.498;2022-10-03T12:12:52;97293.72;;;17.01;46.34
61037;BME280;57313;47.040;15.498;2022-10-03T12:15:31;97284.00;;;17.02;48.79
61037;BME280;57313;47.040;15.498;2022-10-03T12:18:17;97284.69;;;17.04;48.04
61037;BME280;57313;47.040;15.498;2022-10-03T12:21:00;97281.38;;;17.02;47.21
61037;BME280;57313;47.040;15.498;2022-10-03T12:23:49;97281.78;;;17.07;45.92
61037;BME280;57313;47.040;15.498;2022-10-03T12:26:36;97282.38;;;17.11;47.14
61037;BME280;57313;47.040;15.498;2022-10-03T12:29:10;97280.84;;;17.08;44.97
61037;BME280;57313;47.040;15.498;2022-10-03T12:31:41;97283.34;;;17.10;47.37
61037;BME280;57313;47.040;15.498;2022-10-03T12:34:34;97270.03;;;17.11;47.10
61037;BME280;57313;47.040;15.498;2022-10-03T12:40:05;97276.38;;;16.99;47.21
61037;BME280;57313;47.040;15.498;2022-10-03T12:42:41;97268.63;;;16.97;46.98
61037;BME280;57313;47.040;15.498;2022-10-03T12:45:22;97275.16;;;17.03;47.96
61037;BME280;57313;47.040;15.498;2022-10-03T12:47:59;97267.53;;;17.00;45.29
61037;BME280;57313;47.040;15.498;2022-10-03T12:50:45;97266.00;;;16.97;45.96
61037;BME280;57313;47.040;15.498;2022-10-03T12:53:45;97283.31;;;17.00;45.35
61037;BME280;57313;47.040;15.498;2022-10-03T12:56:23;97279.97;;;16.98;45.16
61037;BME280;57313;47.040;15.498;2022-10-03T12:59:04;97273.19;;;16.95;46.63
61037;BME280;57313;47.040;15.498;2022-10-03T13:01:47;97282.59;;;16.98;44.56
61037;BME280;57313;47.040;15.498;2022-10-03T13:04:27;97284.41;;;16.97;45.08
61037;BME280;57313;47.040;15.498;2022-10-03T13:07:13;97294.94;;;16.97;45.26
61037;BME280;57313;47.040;15.498;2022-10-03T13:09:58;97275.97;;;16.94;46.75
61037;BME280;57313;47.040;15.498;2022-10-03T13:12:34;97277.34;;;16.98;47.40
61037;BME280;57313;47.040;15.498;2022-10-03T13:15:32;97274.44;;;17.01;46.47
61037;BME280;57313;47.040;15.498;2022-10-03T13:18:12;97271.53;;;17.04;43.97
61037;BME280;57313;47.040;15.498;2022-10-03T13:20:48;97274.44;;;17.01;43.40
61037;BME280;57313;47.040;15.498;2022-10-03T13:23:24;97276.78;;;16.94;43.88
61037;BME280;57313;47.040;15.498;2022-10-03T13:26:03;97271.38;;;16.96;45.36
61037;BME280;57313;47.040;15.498;2022-10-03T13:29:05;97252.56;;;17.00;44.89
61037;BME280;57313;47.040;15.498;2022-10-03T13:31:43;97262.81;;;17.03;43.64
61037;BME280;57313;47.040;15.498;2022-10-03T13:34:17;97263.38;;;16.97;43.71
61037;BME280;57313;47.040;15.498;2022-10-03T13:36:52;97262.28;;;17.00;44.48
61037;BME280;57313;47.040;15.498;2022-10-03T13:39:24;97263.38;;;16.97;44.16
61037;BME280;57313;47.040;15.498;2022-10-03T13:42:00;97260.19;;;16.94;45.11
61037;BME280;57313;47.040;15.498;2022-10-03T13:44:35;97254.91;;;16.94;43.95
61037;BME280;57313;47.040;15.498;2022-10-03T13:47:16;97258.38;;;16.94;43.82
61037;BME280;57313;47.040;15.498;2022-10-03T13:49:51;97263.91;;;16.91;43.86
61037;BME280;57313;47.040;15.498;2022-10-03T13:52:25;97263.22;;;16.89;44.56
61037;BME280;57313;47.040;15.498;2022-10-03T13:55:19;97255.59;;;16.86;44.67
61037;BME280;57313;47.040;15.498;2022-10-03T13:58:13;97271.09;;;16.89;43.86
61037;BME280;57313;47.040;15.498;2022-10-03T14:00:50;97253.50;;;16.90;45.51
61037;BME280;57313;47.040;15.498;2022-10-03T14:03:26;97258.31;;;16.84;43.33
61037;BME280;57313;47.040;15.498;2022-10-03T14:06:12;97257.34;;;16.85;44.88
61037;BME280;57313;47.040;15.498;2022-10-03T14:08:54;97239.91;;;16.84;44.93
61037;BME280;57313;47.040;15.498;2022-10-03T14:11:34;97247.34;;;16.79;45.22
61037;BME280;57313;47.040;15.498;2022-10-03T14:17:02;97245.84;;;16.77;46.35
61037;BME280;57313;47.040;15.498;2022-10-03T14:19:38;97251.63;;;16.71;45.43
61037;BME280;57313;47.040;15.498;2022-10-03T14:22:29;97252.72;;;16.68;45.79
61037;BME280;57313;47.040;15.498;2022-10-03T14:25:18;97257.97;;;16.68;45.50
61037;BME280;57313;47.040;15.498;2022-10-03T14:27:54;97259.66;;;16.69;47.22
61037;BME280;57313;47.040;15.498;2022-10-03T14:30:27;97262.28;;;16.69;45.03
61037;BME280;57313;47.040;15.498;2022-10-03T14:33:11;97257.84;;;16.69;46.25
61037;BME280;57313;47.040;15.498;2022-10-03T14:35:49;97273.06;;;16.66;47.33
61037;BME280;57313;47.040;15.498;2022-10-03T14:41:38;97271.78;;;16.60;46.18
61037;BME280;57313;47.040;15.498;2022-10-03T14:44:12;97266.22;;;16.54;45.68
61037;BME280;57313;47.040;15.498;2022-10-03T14:46:47;97278.81;;;16.50;46.10
61037;BME280;57313;47.040;15.498;2022-10-03T14:49:19;97279.38;;;16.54;46.30
61037;BME280;57313;47.040;15.498;2022-10-03T14:52:15;97280.44;;;16.51;46.71
61037;BME280;57313;47.040;15.498;2022-10-03T14:54:44;97286.09;;;16.46;44.92
61037;BME280;57313;47.040;15.498;2022-10-03T14:57:25;97286.81;;;16.48;46.72
61037;BME280;57313;47.040;15.498;2022-10-03T14:59:57;97290.28;;;16.49;46.14
61037;BME280;57313;47.040;15.498;2022-10-03T15:02:28;97288.03;;;16.44;45.90
61037;BME280;57313;47.040;15.498;2022-10-03T15:05:02;97279.59;;;16.41;45.42
61037;BME280;57313;47.040;15.498;2022-10-03T15:07:35;97291.88;;;16.40;46.62
61037;BME280;57313;47.040;15.498;2022-10-03T15:10:08;97279.72;;;16.39;46.23
61037;BME280;57313;47.040;15.498;2022-10-03T15:12:40;97284.63;;;16.32;45.11
61037;BME280;57313;47.040;15.498;2022-10-03T15:15:14;97277.75;;;16.31;44.88
61037;BME280;57313;47.040;15.498;2022-10-03T15:17:47;97278.56;;;16.32;44.05
61037;BME280;57313;47.040;15.498;2022-10-03T15:20:17;97285.88;;;16.28;44.40
61037;BME280;57313;47.040;15.498;2022-10-03T15:22:48;97274.22;;;16.21;43.94
61037;BME280;57313;47.040;15.498;2022-10-03T15:25:21;97284.97;;;16.18;45.21
61037;BME280;57313;47.040;15.498;2022-10-03T15:27:51;97285.09;;;16.17;45.24
61037;BME280;57313;47.040;15.498;2022-10-03T15:30:26;97284.66;;;16.11;44.78
61037;BME280;57313;47.040;15.498;2022-10-03T15:33:05;97283.69;;;16.12;44.84
61037;BME280;57313;47.040;15.498;2022-10-03T15:35:36;97281.31;;;16.09;44.65
61037;BME280;57313;47.040;15.498;2022-10-03T15:38:10;97275.88;;;16.01;44.84
61037;BME280;57313;47.040;15.498;2022-10-03T15:40:46;97280.94;;;15.93;44.58
61037;BME280;57313;47.040;15.498;2022-10-03T15:43:30;97278.44;;;15.91;44.74
61037;BME280;57313;47.040;15.498;2022-10-03T15:46:05;97284.78;;;15.89;44.66
61037;BME280;57313;47.040;15.498;2022-10-03T15:48:38;97292.66;;;15.89;45.59
61037;BME280;57313;47.040;15.498;2022-10-03T15:51:17;97305.22;;;15.85;47.51
61037;BME280;57313;47.040;15.498;2022-10-03T15:53:47;97298.78;;;15.78;47.21
61037;BME280;57313;47.040;15.498;2022-10-03T15:56:21;97297.72;;;15.69;47.58
61037;BME280;57313;47.040;15.498;2022-10-03T15:58:52;97306.94;;;15.64;49.90
61037;BME280;57313;47.040;15.498;2022-10-03T16:01:25;97297.41;;;15.51;50.65
61037;BME280;57313;47.040;15.498;2022-10-03T16:03:56;97293.03;;;15.40;52.54
61037;BME280;57313;47.040;15.498;2022-10-03T16:06:29;97311.44;;;15.29;51.24
61037;BME280;57313;47.040;15.498;2022-10-03T16:09:04;97316.31;;;15.22;53.91
61037;BME280;57313;47.040;15.498;2022-10-03T16:11:38;97309.06;;;15.15;54.79
61037;BME280;57313;47.040;15.498;2022-10-03T16:14:16;97317.41;;;15.08;54.25
61037;BME280;57313;47.040;15.498;2022-10-03T16:16:52;97321.38;;;15.03;57.84
61037;BME280;57313;47.040;15.498;2022-10-03T16:19:31;97322.09;;;14.94;58.69
61037;BME280;57313;47.040;15.498;2022-10-03T16:22:21;97324.50;;;14.85;62.73
61037;BME280;57313;47.040;15.498;2022-10-03T16:25:05;97322.69;;;14.75;66.14
61037;BME280;57313;47.040;15.498;2022-10-03T16:27:39;97323.41;;;14.65;65.67
61037;BME280;57313;47.040;15.498;2022-10-03T16:30:18;97321.56;;;14.54;69.95
61037;BME280;57313;47.040;15.498;2022-10-03T16:33:02;97330.03;;;14.47;72.22
61037;BME280;57313;47.040;15.498;2022-10-03T16:35:37;97329.63;;;14.29;74.44
61037;BME280;57313;47.040;15.498;2022-10-03T16:38:16;97340.53;;;14.11;73.55
61037;BME280;57313;47.040;15.498;2022-10-03T16:40:56;97349.53;;;13.96;72.16
61037;BME280;57313;47.040;15.498;2022-10-03T16:43:26;97349.38;;;13.86;73.70
61037;BME280;57313;47.040;15.498;2022-10-03T16:45:58;97350.88;;;13.77;73.80
61037;BME280;57313;47.040;15.498;2022-10-03T16:48:32;97355.94;;;13.68;73.14
61037;BME280;57313;47.040;15.498;2022-10-03T16:51:00;97364.69;;;13.55;75.17
61037;BME280;57313;47.040;15.498;2022-10-03T16:53:30;97360.31;;;13.43;77.14
61037;BME280;57313;47.040;15.498;2022-10-03T16:56:04;97357.63;;;13.32;77.15
61037;BME280;57313;47.040;15.498;2022-10-03T16:58:37;97358.88;;;13.26;76.60